sensor_id;sensor_type;location;lat;lon;timestamp;pressure;altitude;pressure_sealevel;temperature
68012;BMP180;54794;48.348;7.878;2023-02-26T00:01:38;98650.00;;;3.00
68012;BMP180;54794;48.348;7.878;2023-02-26T00:04:06;98649.00;;;3.00
68012;BMP180;54794;48.348;7.878;2023-02-26T00:06:37;98655.00;;;3.10
68012;BMP180;54794;48.348;7.878;2023-02-26T00:09:05;98642.00;;;3.00
68012;BMP180;54794;48.348;7.878;2023-02-26T00:11:35;98654.00;;;2.80
68012;BMP180;54794;48.348;7.878;2023-02-26T00:14:02;98654.00;;;3.00
68012;BMP180;54794;48.348;7.878;2023-02-26T00:16:34;98664.00;;;2.90
68012;BMP180;54794;48.348;7.878;2023-02-26T00:19:05;98660.00;;;3.00
68012;BMP180;54794;48.348;7.878;2023-02-26T00:21:35;98657.00;;;3.10
68012;BMP180;54794;48.348;7.878;2023-02-26T00:24:03;98652.00;;;3.20
68012;BMP180;54794;48.348;7.878;2023-02-26T00:26:33;98655.00;;;2.90
68012;BMP180;54794;48.348;7.878;2023-02-26T00:29:03;98656.00;;;2.90
68012;BMP180;54794;48.348;7.878;2023-02-26T00:31:31;98659.00;;;2.90
68012;BMP180;54794;48.348;7.878;2023-02-26T00:33:58;98660.00;;;3.00
68012;BMP180;54794;48.348;7.878;2023-02-26T00:40:07;98655.00;;;3.10
68012;BMP180;54794;48.348;7.878;2023-02-26T00:42:39;98656.00;;;2.60
68012;BMP180;54794;48.348;7.878;2023-02-26T00:45:08;98651.00;;;2.90
68012;BMP180;54794;48.348;7.878;2023-02-26T00:48:15;98662.00;;;2.90
68012;BMP180;54794;48.348;7.878;2023-02-26T00:51:09;98664.00;;;2.80
68012;BMP180;54794;48.348;7.878;2023-02-26T00:54:17;98668.00;;;2.90
68012;BMP180;54794;48.348;7.878;2023-02-26T00:56:41;98673.00;;;2.70
68012;BMP180;54794;48.348;7.878;2023-02-26T00:59:07;98666.00;;;2.90
68012;BMP180;54794;48.348;7.878;2023-02-26T01:01:34;98667.00;;;2.90
68012;BMP180;54794;48.348;7.878;2023-02-26T01:04:02;98660.00;;;2.70
68012;BMP180;54794;48.348;7.878;2023-02-26T01:06:32;98668.00;;;2.80
68012;BMP180;54794;48.348;7.878;2023-02-26T01:11:54;98668.00;;;2.70
68012;BMP180;54794;48.348;7.878;2023-02-26T01:14:23;98662.00;;;2.70
68012;BMP180;54794;48.348;7.878;2023-02-26T01:20:21;98660.00;;;2.40
68012;BMP180;54794;48.348;7.878;2023-02-26T01:22:56;98657.00;;;2.70
68012;BMP180;54794;48.348;7.878;2023-02-26T01:25:56;98671.00;;;2.40
68012;BMP180;54794;48.348;7.878;2023-02-26T01:28:21;98657.00;;;2.60
68012;BMP180;54794;48.348;7.878;2023-02-26T01:30:52;98660.00;;;2.70
68012;BMP180;54794;48.348;7.878;2023-02-26T01:33:48;98654.00;;;2.70
68012;BMP180;54794;48.348;7.878;2023-02-26T01:36:23;98649.00;;;2.70
68012;BMP180;54794;48.348;7.878;2023-02-26T01:41:51;98658.00;;;2.70
68012;BMP180;54794;48.348;7.878;2023-02-26T01:44:26;98654.00;;;2.60
68012;BMP180;54794;48.348;7.878;2023-02-26T01:47:32;98655.00;;;2.50
68012;BMP180;54794;48.348;7.878;2023-02-26T01:50:16;98662.00;;;2.40
68012;BMP180;54794;48.348;7.878;2023-02-26T01:55:18;98664.00;;;2.40
68012;BMP180;54794;48.348;7.878;2023-02-26T01:57:47;98670.00;;;2.40
68012;BMP180;54794;48.348;7.878;2023-02-26T02:00:15;98656.00;;;2.30
68012;BMP180;54794;48.348;7.878;2023-02-26T02:02:43;98658.00;;;2.30
68012;BMP180;54794;48.348;7.878;2023-02-26T02:05:20;98658.00;;;2.40
68012;BMP180;54794;48.348;7.878;2023-02-26T02:07:48;98657.00;;;2.50
68012;BMP180;54794;48.348;7.878;2023-02-26T02:10:16;98652.00;;;2.50
68012;BMP180;54794;48.348;7.878;2023-02-26T02:12:52;98667.00;;;2.30
68012;BMP180;54794;48.348;7.878;2023-02-26T02:15:32;98661.00;;;2.50
68012;BMP180;54794;48.348;7.878;2023-02-26T02:18:44;98670.00;;;2.40
68012;BMP180;54794;48.348;7.878;2023-02-26T02:21:27;98663.00;;;2.20
68012;BMP180;54794;48.348;7.878;2023-02-26T02:24:13;98657.00;;;2.20
68012;BMP180;54794;48.348;7.878;2023-02-26T02:26:53;98669.00;;;2.30
68012;BMP180;54794;48.348;7.878;2023-02-26T02:29:31;98668.00;;;2.20
68012;BMP180;54794;48.348;7.878;2023-02-26T02:32:26;98662.00;;;2.40
68012;BMP180;54794;48.348;7.878;2023-02-26T02:41:02;98668.00;;;2.30
68012;BMP180;54794;48.348;7.878;2023-02-26T02:43:33;98669.00;;;2.20
68012;BMP180;54794;48.348;7.878;2023-02-26T02:46:15;98663.00;;;2.30
68012;BMP180;54794;48.348;7.878;2023-02-26T02:48:56;98676.00;;;2.00
68012;BMP180;54794;48.348;7.878;2023-02-26T02:51:43;98682.00;;;2.00
68012;BMP180;54794;48.348;7.878;2023-02-26T02:54:20;98674.00;;;2.10
68012;BMP180;54794;48.348;7.878;2023-02-26T02:57:03;98688.00;;;2.20
68012;BMP180;54794;48.348;7.878;2023-02-26T02:59:41;98684.00;;;2.10
68012;BMP180;54794;48.348;7.878;2023-02-26T03:02:25;98690.00;;;2.10
68012;BMP180;54794;48.348;7.878;2023-02-26T03:04:54;98692.00;;;2.10
68012;BMP180;54794;48.348;7.878;2023-02-26T03:07:21;98689.00;;;2.10
68012;BMP180;54794;48.348;7.878;2023-02-26T03:09:48;98699.00;;;2.00
68012;BMP180;54794;48.348;7.878;2023-02-26T03:12:16;98701.00;;;1.90
68012;BMP180;54794;48.348;7.878;2023-02-26T03:14:43;98703.00;;;1.80
68012;BMP180;54794;48.348;7.878;2023-02-26T03:20:31;98706.00;;;2.00
68012;BMP180;54794;48.348;7.878;2023-02-26T03:26:12;98699.00;;;1.90
68012;BMP180;54794;48.348;7.878;2023-02-26T03:29:11;98712.00;;;1.90
68012;BMP180;54794;48.348;7.878;2023-02-26T03:31:58;98704.00;;;2.00
68012;BMP180;54794;48.348;7.878;2023-02-26T03:35:16;98716.00;;;2.00
68012;BMP180;54794;48.348;7.878;2023-02-26T03:37:51;98711.00;;;2.00
68012;BMP180;54794;48.348;7.878;2023-02-26T03:40:31;98715.00;;;2.00
68012;BMP180;54794;48.348;7.878;2023-02-26T03:43:08;98714.00;;;2.10
68012;BMP180;54794;48.348;7.878;2023-02-26T03:45:41;98713.00;;;2.20
68012;BMP180;54794;48.348;7.878;2023-02-26T03:48:17;98719.00;;;2.10
68012;BMP180;54794;48.348;7.878;2023-02-26T03:50:50;98712.00;;;2.10
68012;BMP180;54794;48.348;7.878;2023-02-26T03:53:24;98724.00;;;2.10
68012;BMP180;54794;48.348;7.878;2023-02-26T03:56:32;98734.00;;;2.00
68012;BMP180;54794;48.348;7.878;2023-02-26T03:58:52;98726.00;;;2.00
68012;BMP180;54794;48.348;7.878;2023-02-26T04:01:29;98729.00;;;2.00
68012;BMP180;54794;48.348;7.878;2023-02-26T04:04:15;98732.00;;;1.80
68012;BMP180;54794;48.348;7.878;2023-02-26T04:06:44;98723.00;;;1.80
68012;BMP180;54794;48.348;7.878;2023-02-26T04:09:11;98728.00;;;1.90
68012;BMP180;54794;48.348;7.878;2023-02-26T04:11:43;98727.00;;;2.00
68012;BMP180;54794;48.348;7.878;2023-02-26T04:14:11;98724.00;;;1.90
68012;BMP180;54794;48.348;7.878;2023-02-26T04:16:37;98734.00;;;1.80
68012;BMP180;54794;48.348;7.878;2023-02-26T04:19:07;98732.00;;;1.80
68012;BMP180;54794;48.348;7.878;2023-02-26T04:21:36;98750.00;;;1.70
68012;BMP180;54794;48.348;7.878;2023-02-26T04:24:06;98741.00;;;1.70
68012;BMP180;54794;48.348;7.878;2023-02-26T04:26:33;98743.00;;;1.90
68012;BMP180;54794;48.348;7.878;2023-02-26T04:29:00;98740.00;;;1.80
68012;BMP180;54794;48.348;7.878;2023-02-26T04:31:27;98748.00;;;1.90
68012;BMP180;54794;48.348;7.878;2023-02-26T04:33:55;98748.00;;;1.90
68012;BMP180;54794;48.348;7.878;2023-02-26T04:36:22;98740.00;;;2.00
68012;BMP180;54794;48.348;7.878;2023-02-26T04:38:50;98742.00;;;1.80
68012;BMP180;54794;48.348;7.878;2023-02-26T04:41:17;98748.00;;;1.80
68012;BMP180;54794;48.348;7.878;2023-02-26T04:43:43;98752.00;;;1.30
68012;BMP180;54794;48.348;7.878;2023-02-26T04:46:11;98762.00;;;1.30
68012;BMP180;54794;48.348;7.878;2023-02-26T04:48:39;98758.00;;;1.60
68012;BMP180;54794;48.348;7.878;2023-02-26T04:51:06;98761.00;;;1.60
68012;BMP180;54794;48.348;7.878;2023-02-26T04:53:33;98763.00;;;1.60
68012;BMP180;54794;48.348;7.878;2023-02-26T04:56:00;98761.00;;;1.70
68012;BMP180;54794;48.348;7.878;2023-02-26T04:58:30;98759.00;;;1.60
68012;BMP180;54794;48.348;7.878;2023-02-26T05:00:58;98777.00;;;1.50
68012;BMP180;54794;48.348;7.878;2023-02-26T05:03:25;98763.00;;;1.70
68012;BMP180;54794;48.348;7.878;2023-02-26T05:05:51;98769.00;;;1.70
68012;BMP180;54794;48.348;7.878;2023-02-26T05:08:18;98776.00;;;1.60
68012;BMP180;54794;48.348;7.878;2023-02-26T05:10:45;98777.00;;;1.50
68012;BMP180;54794;48.348;7.878;2023-02-26T05:13:12;98787.00;;;1.40
68012;BMP180;54794;48.348;7.878;2023-02-26T05:15:39;98773.00;;;1.40
68012;BMP180;54794;48.348;7.878;2023-02-26T05:18:06;98782.00;;;1.40
68012;BMP180;54794;48.348;7.878;2023-02-26T05:20:33;98783.00;;;1.50
68012;BMP180;54794;48.348;7.878;2023-02-26T05:23:00;98783.00;;;1.40
68012;BMP180;54794;48.348;7.878;2023-02-26T05:25:28;98794.00;;;1.30
68012;BMP180;54794;48.348;7.878;2023-02-26T05:27:55;98795.00;;;1.20
68012;BMP180;54794;48.348;7.878;2023-02-26T05:30:22;98788.00;;;1.40
68012;BMP180;54794;48.348;7.878;2023-02-26T05:32:52;98799.00;;;1.40
68012;BMP180;54794;48.348;7.878;2023-02-26T05:35:20;98806.00;;;1.50
68012;BMP180;54794;48.348;7.878;2023-02-26T05:37:50;98799.00;;;1.40
68012;BMP180;54794;48.348;7.878;2023-02-26T05:40:17;98802.00;;;1.50
68012;BMP180;54794;48.348;7.878;2023-02-26T05:42:44;98800.00;;;1.30
68012;BMP180;54794;48.348;7.878;2023-02-26T05:45:14;98807.00;;;1.00
68012;BMP180;54794;48.348;7.878;2023-02-26T05:47:41;98811.00;;;0.90
68012;BMP180;54794;48.348;7.878;2023-02-26T05:50:09;98811.00;;;1.00
68012;BMP180;54794;48.348;7.878;2023-02-26T05:52:36;98813.00;;;0.70
68012;BMP180;54794;48.348;7.878;2023-02-26T05:55:04;98827.00;;;0.70
68012;BMP180;54794;48.348;7.878;2023-02-26T05:57:31;98823.00;;;0.60
68012;BMP180;54794;48.348;7.878;2023-02-26T05:59:58;98832.00;;;0.70
68012;BMP180;54794;48.348;7.878;2023-02-26T06:02:26;98818.00;;;1.00
68012;BMP180;54794;48.348;7.878;2023-02-26T06:04:53;98826.00;;;1.10
68012;BMP180;54794;48.348;7.878;2023-02-26T06:07:19;98826.00;;;1.30
68012;BMP180;54794;48.348;7.878;2023-02-26T06:09:46;98826.00;;;1.30
68012;BMP180;54794;48.348;7.878;2023-02-26T06:12:15;98825.00;;;1.30
68012;BMP180;54794;48.348;7.878;2023-02-26T06:14:41;98838.00;;;1.10
68012;BMP180;54794;48.348;7.878;2023-02-26T06:17:08;98827.00;;;1.20
68012;BMP180;54794;48.348;7.878;2023-02-26T06:19:35;98829.00;;;1.10
68012;BMP180;54794;48.348;7.878;2023-02-26T06:22:02;98839.00;;;1.10
68012;BMP180;54794;48.348;7.878;2023-02-26T06:24:29;98851.00;;;1.00
68012;BMP180;54794;48.348;7.878;2023-02-26T06:26:56;98851.00;;;1.10
68012;BMP180;54794;48.348;7.878;2023-02-26T06:29:23;98851.00;;;0.90
68012;BMP180;54794;48.348;7.878;2023-02-26T06:31:50;98854.00;;;1.00
68012;BMP180;54794;48.348;7.878;2023-02-26T06:34:17;98850.00;;;1.20
68012;BMP180;54794;48.348;7.878;2023-02-26T06:36:44;98858.00;;;1.30
68012;BMP180;54794;48.348;7.878;2023-02-26T06:39:11;98855.00;;;1.30
68012;BMP180;54794;48.348;7.878;2023-02-26T06:41:38;98867.00;;;1.10
68012;BMP180;54794;48.348;7.878;2023-02-26T06:44:05;98870.00;;;1.10
68012;BMP180;54794;48.348;7.878;2023-02-26T06:46:33;98862.00;;;1.30
68012;BMP180;54794;48.348;7.878;2023-02-26T06:49:00;98877.00;;;1.20
68012;BMP180;54794;48.348;7.878;2023-02-26T06:51:28;98878.00;;;1.30
68012;BMP180;54794;48.348;7.878;2023-02-26T06:53:55;98886.00;;;1.10
68012;BMP180;54794;48.348;7.878;2023-02-26T06:56:22;98887.00;;;1.20
68012;BMP180;54794;48.348;7.878;2023-02-26T06:58:50;98876.00;;;1.00
68012;BMP180;54794;48.348;7.878;2023-02-26T07:01:17;98895.00;;;1.10
68012;BMP180;54794;48.348;7.878;2023-02-26T07:03:44;98888.00;;;1.10
68012;BMP180;54794;48.348;7.878;2023-02-26T07:06:12;98886.00;;;1.00
68012;BMP180;54794;48.348;7.878;2023-02-26T07:08:54;98894.00;;;1.20
68012;BMP180;54794;48.348;7.878;2023-02-26T07:11:21;98902.00;;;1.10
68012;BMP180;54794;48.348;7.878;2023-02-26T07:13:48;98897.00;;;1.20
68012;BMP180;54794;48.348;7.878;2023-02-26T07:16:17;98908.00;;;1.30
68012;BMP180;54794;48.348;7.878;2023-02-26T07:18:44;98904.00;;;1.40
68012;BMP180;54794;48.348;7.878;2023-02-26T07:21:11;98915.00;;;1.40
68012;BMP180;54794;48.348;7.878;2023-02-26T07:23:38;98908.00;;;1.30
68012;BMP180;54794;48.348;7.878;2023-02-26T07:26:05;98919.00;;;1.30
68012;BMP180;54794;48.348;7.878;2023-02-26T07:28:32;98920.00;;;1.20
68012;BMP180;54794;48.348;7.878;2023-02-26T07:30:59;98925.00;;;1.10
68012;BMP180;54794;48.348;7.878;2023-02-26T07:33:26;98918.00;;;1.20
68012;BMP180;54794;48.348;7.878;2023-02-26T07:35:54;98918.00;;;1.30
68012;BMP180;54794;48.348;7.878;2023-02-26T07:38:21;98917.00;;;1.40
68012;BMP180;54794;48.348;7.878;2023-02-26T07:40:48;98936.00;;;1.10
68012;BMP180;54794;48.348;7.878;2023-02-26T07:43:15;98925.00;;;1.30
68012;BMP180;54794;48.348;7.878;2023-02-26T07:45:42;98924.00;;;1.30
68012;BMP180;54794;48.348;7.878;2023-02-26T07:48:09;98922.00;;;1.20
68012;BMP180;54794;48.348;7.878;2023-02-26T07:50:37;98926.00;;;1.50
68012;BMP180;54794;48.348;7.878;2023-02-26T07:53:04;98930.00;;;1.30
68012;BMP180;54794;48.348;7.878;2023-02-26T07:55:31;98941.00;;;1.20
68012;BMP180;54794;48.348;7.878;2023-02-26T07:57:58;98950.00;;;1.40
68012;BMP180;54794;48.348;7.878;2023-02-26T08:00:25;98951.00;;;1.50
68012;BMP180;54794;48.348;7.878;2023-02-26T08:02:52;98936.00;;;1.60
68012;BMP180;54794;48.348;7.878;2023-02-26T08:05:19;98937.00;;;1.30
68012;BMP180;54794;48.348;7.878;2023-02-26T08:07:46;98947.00;;;1.30
68012;BMP180;54794;48.348;7.878;2023-02-26T08:10:13;98931.00;;;1.20
68012;BMP180;54794;48.348;7.878;2023-02-26T08:12:40;98935.00;;;1.40
68012;BMP180;54794;48.348;7.878;2023-02-26T08:15:07;98936.00;;;1.30
68012;BMP180;54794;48.348;7.878;2023-02-26T08:17:34;98944.00;;;1.30
68012;BMP180;54794;48.348;7.878;2023-02-26T08:20:01;98935.00;;;1.40
68012;BMP180;54794;48.348;7.878;2023-02-26T08:22:32;98931.00;;;1.30
68012;BMP180;54794;48.348;7.878;2023-02-26T08:25:14;98925.00;;;1.30
68012;BMP180;54794;48.348;7.878;2023-02-26T08:27:45;98938.00;;;1.40
68012;BMP180;54794;48.348;7.878;2023-02-26T08:30:16;98932.00;;;1.50
68012;BMP180;54794;48.348;7.878;2023-02-26T08:33:38;98925.00;;;1.50
68012;BMP180;54794;48.348;7.878;2023-02-26T08:36:17;98926.00;;;1.90
68012;BMP180;54794;48.348;7.878;2023-02-26T08:42:52;98926.00;;;2.10
68012;BMP180;54794;48.348;7.878;2023-02-26T08:45:33;98935.00;;;2.10
68012;BMP180;54794;48.348;7.878;2023-02-26T08:48:02;98944.00;;;2.00
68012;BMP180;54794;48.348;7.878;2023-02-26T08:50:36;98948.00;;;1.70
68012;BMP180;54794;48.348;7.878;2023-02-26T08:53:03;98949.00;;;1.80
68012;BMP180;54794;48.348;7.878;2023-02-26T08:55:32;98931.00;;;2.20
68012;BMP180;54794;48.348;7.878;2023-02-26T08:57:59;98943.00;;;2.40
68012;BMP180;54794;48.348;7.878;2023-02-26T09:00:26;98934.00;;;2.50
68012;BMP180;54794;48.348;7.878;2023-02-26T09:02:55;98940.00;;;2.50
68012;BMP180;54794;48.348;7.878;2023-02-26T09:05:31;98937.00;;;2.80
68012;BMP180;54794;48.348;7.878;2023-02-26T09:08:05;98938.00;;;2.70
68012;BMP180;54794;48.348;7.878;2023-02-26T09:10:39;98930.00;;;2.80
68012;BMP180;54794;48.348;7.878;2023-02-26T09:13:12;98945.00;;;2.70
68012;BMP180;54794;48.348;7.878;2023-02-26T09:15:47;98947.00;;;2.40
68012;BMP180;54794;48.348;7.878;2023-02-26T09:18:16;98946.00;;;2.70
68012;BMP180;54794;48.348;7.878;2023-02-26T09:20:45;98928.00;;;2.90
68012;BMP180;54794;48.348;7.878;2023-02-26T09:23:23;98927.00;;;2.90
68012;BMP180;54794;48.348;7.878;2023-02-26T09:25:54;98930.00;;;2.70
68012;BMP180;54794;48.348;7.878;2023-02-26T09:28:25;98931.00;;;2.70
68012;BMP180;54794;48.348;7.878;2023-02-26T09:30:54;98923.00;;;2.70
68012;BMP180;54794;48.348;7.878;2023-02-26T09:33:22;98932.00;;;2.90
68012;BMP180;54794;48.348;7.878;2023-02-26T09:35:51;98928.00;;;2.80
68012;BMP180;54794;48.348;7.878;2023-02-26T09:38:19;98940.00;;;2.80
68012;BMP180;54794;48.348;7.878;2023-02-26T09:41:08;98927.00;;;3.10
68012;BMP180;54794;48.348;7.878;2023-02-26T09:52:27;98956.00;;;2.90
68012;BMP180;54794;48.348;7.878;2023-02-26T09:55:08;98949.00;;;3.00
68012;BMP180;54794;48.348;7.878;2023-02-26T09:57:43;98949.00;;;3.10
68012;BMP180;54794;48.348;7.878;2023-02-26T10:00:37;98944.00;;;3.10
68012;BMP180;54794;48.348;7.878;2023-02-26T10:06:33;98950.00;;;3.20
68012;BMP180;54794;48.348;7.878;2023-02-26T10:12:07;98941.00;;;3.00
68012;BMP180;54794;48.348;7.878;2023-02-26T10:14:57;98953.00;;;3.20
68012;BMP180;54794;48.348;7.878;2023-02-26T10:17:56;98959.00;;;3.30
68012;BMP180;54794;48.348;7.878;2023-02-26T10:23:42;98950.00;;;3.40
68012;BMP180;54794;48.348;7.878;2023-02-26T10:26:19;98952.00;;;3.40
68012;BMP180;54794;48.348;7.878;2023-02-26T10:29:16;98956.00;;;3.00
68012;BMP180;54794;48.348;7.878;2023-02-26T10:40:27;98956.00;;;3.00
68012;BMP180;54794;48.348;7.878;2023-02-26T10:43:48;98965.00;;;2.90
68012;BMP180;54794;48.348;7.878;2023-02-26T10:51:49;98978.00;;;2.70
68012;BMP180;54794;48.348;7.878;2023-02-26T10:54:35;98969.00;;;2.80
68012;BMP180;54794;48.348;7.878;2023-02-26T10:57:03;98982.00;;;3.00
68012;BMP180;54794;48.348;7.878;2023-02-26T10:59:30;98977.00;;;2.90
68012;BMP180;54794;48.348;7.878;2023-02-26T11:01:59;98990.00;;;2.70
68012;BMP180;54794;48.348;7.878;2023-02-26T11:04:26;98980.00;;;2.80
68012;BMP180;54794;48.348;7.878;2023-02-26T11:07:00;98992.00;;;2.80
68012;BMP180;54794;48.348;7.878;2023-02-26T11:09:38;99010.00;;;2.70
68012;BMP180;54794;48.348;7.878;2023-02-26T11:14:39;99006.00;;;3.30
68012;BMP180;54794;48.348;7.878;2023-02-26T11:17:28;99010.00;;;3.50
68012;BMP180;54794;48.348;7.878;2023-02-26T11:20:03;98995.00;;;3.40
68012;BMP180;54794;48.348;7.878;2023-02-26T11:22:36;99003.00;;;3.30
68012;BMP180;54794;48.348;7.878;2023-02-26T11:25:05;99002.00;;;3.30
68012;BMP180;54794;48.348;7.878;2023-02-26T11:27:37;99008.00;;;3.00
68012;BMP180;54794;48.348;7.878;2023-02-26T11:30:18;99005.00;;;3.20
68012;BMP180;54794;48.348;7.878;2023-02-26T11:32:51;99008.00;;;3.40
68012;BMP180;54794;48.348;7.878;2023-02-26T11:35:23;99000.00;;;3.40
68012;BMP180;54794;48.348;7.878;2023-02-26T11:37:57;98998.00;;;3.60
68012;BMP180;54794;48.348;7.878;2023-02-26T11:40:40;98997.00;;;3.60
68012;BMP180;54794;48.348;7.878;2023-02-26T11:43:17;98997.00;;;3.80
68012;BMP180;54794;48.348;7.878;2023-02-26T11:45:53;98979.00;;;3.90
68012;BMP180;54794;48.348;7.878;2023-02-26T11:48:28;98976.00;;;3.80
68012;BMP180;54794;48.348;7.878;2023-02-26T11:51:02;98973.00;;;3.80
68012;BMP180;54794;48.348;7.878;2023-02-26T11:53:35;98984.00;;;3.90
68012;BMP180;54794;48.348;7.878;2023-02-26T11:56:25;98983.00;;;4.10
68012;BMP180;54794;48.348;7.878;2023-02-26T11:58:53;98982.00;;;4.20
68012;BMP180;54794;48.348;7.878;2023-02-26T12:01:28;98980.00;;;4.10
68012;BMP180;54794;48.348;7.878;2023-02-26T12:04:00;98998.00;;;3.70
68012;BMP180;54794;48.348;7.878;2023-02-26T12:06:29;98996.00;;;3.90
68012;BMP180;54794;48.348;7.878;2023-02-26T12:08:57;99006.00;;;3.80
68012;BMP180;54794;48.348;7.878;2023-02-26T12:35:32;98992.00;;;3.60
68012;BMP180;54794;48.348;7.878;2023-02-26T12:38:39;98988.00;;;4.00
68012;BMP180;54794;48.348;7.878;2023-02-26T13:00:19;99009.00;;;3.90
68012;BMP180;54794;48.348;7.878;2023-02-26T13:03:51;98998.00;;;4.10
68012;BMP180;54794;48.348;7.878;2023-02-26T13:07:34;99014.00;;;3.80
68012;BMP180;54794;48.348;7.878;2023-02-26T13:17:53;99009.00;;;3.90
68012;BMP180;54794;48.348;7.878;2023-02-26T13:29:40;99006.00;;;3.90
68012;BMP180;54794;48.348;7.878;2023-02-26T13:36:47;99001.00;;;3.90
68012;BMP180;54794;48.348;7.878;2023-02-26T13:56:54;99016.00;;;3.50
68012;BMP180;54794;48.348;7.878;2023-02-26T14:06:22;99042.00;;;3.10
68012;BMP180;54794;48.348;7.878;2023-02-26T14:08:54;99030.00;;;3.40
68012;BMP180;54794;48.348;7.878;2023-02-26T14:11:44;99016.00;;;3.70
68012;BMP180;54794;48.348;7.878;2023-02-26T14:14:24;99015.00;;;3.80
68012;BMP180;54794;48.348;7.878;2023-02-26T14:22:34;99004.00;;;4.20
68012;BMP180;54794;48.348;7.878;2023-02-26T14:27:46;99028.00;;;4.10
68012;BMP180;54794;48.348;7.878;2023-02-26T14:30:32;99013.00;;;4.20
68012;BMP180;54794;48.348;7.878;2023-02-26T14:35:31;99014.00;;;4.20
68012;BMP180;54794;48.348;7.878;2023-02-26T14:38:12;99016.00;;;4.00
68012;BMP180;54794;48.348;7.878;2023-02-26T14:44:21;99034.00;;;3.90
68012;BMP180;54794;48.348;7.878;2023-02-26T14:46:51;99035.00;;;3.90
68012;BMP180;54794;48.348;7.878;2023-02-26T14:49:36;99034.00;;;3.90
68012;BMP180;54794;48.348;7.878;2023-02-26T14:52:33;99019.00;;;4.40
68012;BMP180;54794;48.348;7.878;2023-02-26T15:15:51;99047.00;;;4.90
68012;BMP180;54794;48.348;7.878;2023-02-26T15:24:19;99051.00;;;5.00
68012;BMP180;54794;48.348;7.878;2023-02-26T15:26:51;99042.00;;;4.60
68012;BMP180;54794;48.348;7.878;2023-02-26T15:29:27;99051.00;;;4.40
68012;BMP180;54794;48.348;7.878;2023-02-26T15:34:46;99049.00;;;5.00
68012;BMP180;54794;48.348;7.878;2023-02-26T15:37:23;99059.00;;;4.60
68012;BMP180;54794;48.348;7.878;2023-02-26T15:39:52;99063.00;;;4.80
68012;BMP180;54794;48.348;7.878;2023-02-26T15:42:29;99057.00;;;5.00
68012;BMP180;54794;48.348;7.878;2023-02-26T15:45:01;99073.00;;;5.00
68012;BMP180;54794;48.348;7.878;2023-02-26T15:47:29;99069.00;;;5.00
68012;BMP180;54794;48.348;7.878;2023-02-26T15:49:57;99075.00;;;5.50
68012;BMP180;54794;48.348;7.878;2023-02-26T15:52:26;99076.00;;;5.40
68012;BMP180;54794;48.348;7.878;2023-02-26T15:55:02;99072.00;;;4.90
68012;BMP180;54794;48.348;7.878;2023-02-26T15:57:30;99083.00;;;4.60
68012;BMP180;54794;48.348;7.878;2023-02-26T16:00:06;99079.00;;;4.50
68012;BMP180;54794;48.348;7.878;2023-02-26T16:02:33;99078.00;;;4.30
68012;BMP180;54794;48.348;7.878;2023-02-26T16:05:02;99088.00;;;4.20
68012;BMP180;54794;48.348;7.878;2023-02-26T16:07:29;99076.00;;;4.30
68012;BMP180;54794;48.348;7.878;2023-02-26T16:09:56;99089.00;;;4.20
68012;BMP180;54794;48.348;7.878;2023-02-26T16:12:42;99083.00;;;4.60
68012;BMP180;54794;48.348;7.878;2023-02-26T16:15:32;99081.00;;;4.30
68012;BMP180;54794;48.348;7.878;2023-02-26T16:18:04;99085.00;;;4.50
68012;BMP180;54794;48.348;7.878;2023-02-26T16:20:43;99085.00;;;4.30
68012;BMP180;54794;48.348;7.878;2023-02-26T16:23:16;99102.00;;;4.40
68012;BMP180;54794;48.348;7.878;2023-02-26T16:25:59;99091.00;;;4.30
68012;BMP180;54794;48.348;7.878;2023-02-26T16:28:40;99084.00;;;3.90
68012;BMP180;54794;48.348;7.878;2023-02-26T16:31:20;99094.00;;;4.10
68012;BMP180;54794;48.348;7.878;2023-02-26T16:36:30;99103.00;;;3.70
68012;BMP180;54794;48.348;7.878;2023-02-26T16:39:13;99108.00;;;3.90
68012;BMP180;54794;48.348;7.878;2023-02-26T16:41:48;99115.00;;;3.90
68012;BMP180;54794;48.348;7.878;2023-02-26T16:46:57;99132.00;;;3.80
68012;BMP180;54794;48.348;7.878;2023-02-26T16:49:35;99139.00;;;3.80
68012;BMP180;54794;48.348;7.878;2023-02-26T16:52:04;99142.00;;;3.50
68012;BMP180;54794;48.348;7.878;2023-02-26T16:54:36;99137.00;;;3.60
68012;BMP180;54794;48.348;7.878;2023-02-26T16:57:17;99151.00;;;3.30
68012;BMP180;54794;48.348;7.878;2023-02-26T16:59:52;99154.00;;;3.40
68012;BMP180;54794;48.348;7.878;2023-02-26T17:02:25;99153.00;;;3.30
68012;BMP180;54794;48.348;7.878;2023-02-26T17:05:00;99156.00;;;3.10
68012;BMP180;54794;48.348;7.878;2023-02-26T17:07:44;99151.00;;;3.20
68012;BMP180;54794;48.348;7.878;2023-02-26T17:10:31;99168.00;;;3.10
68012;BMP180;54794;48.348;7.878;2023-02-26T17:13:18;99169.00;;;2.90
68012;BMP180;54794;48.348;7.878;2023-02-26T17:15:46;99170.00;;;3.00
68012;BMP180;54794;48.348;7.878;2023-02-26T17:18:14;99175.00;;;2.90
68012;BMP180;54794;48.348;7.878;2023-02-26T17:20:42;99178.00;;;3.00
68012;BMP180;54794;48.348;7.878;2023-02-26T17:23:14;99184.00;;;3.10
68012;BMP180;54794;48.348;7.878;2023-02-26T17:25:45;99194.00;;;3.00
68012;BMP180;54794;48.348;7.878;2023-02-26T17:28:25;99200.00;;;3.20
68012;BMP180;54794;48.348;7.878;2023-02-26T17:30:53;99200.00;;;3.10
68012;BMP180;54794;48.348;7.878;2023-02-26T17:33:20;99205.00;;;2.90
68012;BMP180;54794;48.348;7.878;2023-02-26T17:35:48;99209.00;;;3.00
68012;BMP180;54794;48.348;7.878;2023-02-26T17:38:15;99211.00;;;3.00
68012;BMP180;54794;48.348;7.878;2023-02-26T17:40:45;99208.00;;;3.10
68012;BMP180;54794;48.348;7.878;2023-02-26T17:43:13;99211.00;;;2.80
68012;BMP180;54794;48.348;7.878;2023-02-26T17:45:40;99208.00;;;3.00
68012;BMP180;54794;48.348;7.878;2023-02-26T17:48:09;99206.00;;;2.90
68012;BMP180;54794;48.348;7.878;2023-02-26T17:50:49;99209.00;;;2.90
68012;BMP180;54794;48.348;7.878;2023-02-26T17:53:18;99214.00;;;2.80
68012;BMP180;54794;48.348;7.878;2023-02-26T17:55:48;99217.00;;;2.80
68012;BMP180;54794;48.348;7.878;2023-02-26T17:58:28;99220.00;;;2.60
68012;BMP180;54794;48.348;7.878;2023-02-26T18:00:56;99216.00;;;2.70
68012;BMP180;54794;48.348;7.878;2023-02-26T18:03:23;99212.00;;;2.70
68012;BMP180;54794;48.348;7.878;2023-02-26T18:05:53;99227.00;;;2.60
68012;BMP180;54794;48.348;7.878;2023-02-26T18:08:32;99217.00;;;2.60
68012;BMP180;54794;48.348;7.878;2023-02-26T18:11:02;99219.00;;;2.60
68012;BMP180;54794;48.348;7.878;2023-02-26T18:13:30;99226.00;;;2.60
68012;BMP180;54794;48.348;7.878;2023-02-26T18:15:58;99225.00;;;2.60
68012;BMP180;54794;48.348;7.878;2023-02-26T18:18:28;99230.00;;;2.80
68012;BMP180;54794;48.348;7.878;2023-02-26T18:20:55;99220.00;;;2.60
68012;BMP180;54794;48.348;7.878;2023-02-26T18:23:23;99236.00;;;2.30